createdAt,value
2022-09-13T00:01:35.317Z,11.95
2022-09-13T00:04:02.726Z,11.23
2022-09-13T00:06:29.671Z,16.70
2022-09-13T00:08:56.617Z,14.73
2022-09-13T00:11:27.825Z,13.70
2022-09-13T00:13:56.301Z,15.60
2022-09-13T00:16:27.784Z,13.95
2022-09-13T00:18:55.573Z,12.20
2022-09-13T00:21:24.560Z,13.97
2022-09-13T00:23:54.296Z,13.73
2022-09-13T00:26:27.907Z,14.97
2022-09-13T00:28:57.978Z,16.43
2022-09-13T00:31:28.045Z,14.27
2022-09-13T00:33:56.137Z,18.63
2022-09-13T00:36:23.135Z,14.77
2022-09-13T00:38:50.040Z,17.00
2022-09-13T00:41:19.993Z,17.17
2022-09-13T00:43:59.522Z,14.73
2022-09-13T00:46:49.052Z,14.33
2022-09-13T00:49:36.875Z,13.27
2022-09-13T00:52:10.251Z,14.13
2022-09-13T00:54:46.079Z,13.77
2022-09-13T00:57:15.863Z,18.13
2022-09-13T01:00:13.869Z,11.07
2022-09-13T01:02:48.689Z,18.23
2022-09-13T01:05:20.683Z,11.43
2022-09-13T01:07:47.875Z,12.33
2022-09-13T01:10:15.052Z,13.57
2022-09-13T01:13:05.425Z,12.87
2022-09-13T01:15:32.319Z,12.80
2022-09-13T01:17:59.429Z,9.33
2022-09-13T01:21:04.453Z,14.73
2022-09-13T01:24:02.429Z,12.80
2022-09-13T01:27:15.126Z,14.57
2022-09-13T01:30:05.405Z,13.70
2022-09-13T01:33:29.895Z,13.98
2022-09-13T01:36:18.882Z,11.00
2022-09-13T01:39:04.947Z,11.27
2022-09-13T01:42:03.346Z,16.43
2022-09-13T01:44:56.713Z,13.50
2022-09-13T01:47:34.009Z,11.37
2022-09-13T01:50:26.747Z,13.67
2022-09-13T01:53:25.805Z,12.18
2022-09-13T01:56:18.612Z,10.23
2022-09-13T01:58:59.436Z,10.47
2022-09-13T02:01:38.631Z,10.30
2022-09-13T02:04:17.115Z,10.53
2022-09-13T02:06:58.117Z,11.67
2022-09-13T02:09:28.627Z,10.23
2022-09-13T02:12:03.801Z,10.68
2022-09-13T02:14:44.332Z,11.53
2022-09-13T02:17:20.158Z,10.03
2022-09-13T02:19:58.750Z,10.40
2022-09-13T02:22:37.666Z,11.53
2022-09-13T02:25:14.578Z,10.53
2022-09-13T02:27:48.407Z,10.60
2022-09-13T02:30:16.185Z,10.37
2022-09-13T02:33:01.249Z,11.83
2022-09-13T02:35:51.122Z,9.00
2022-09-13T02:38:59.841Z,10.57
2022-09-13T02:41:55.104Z,11.60
2022-09-13T02:44:54.030Z,14.07
2022-09-13T02:47:54.322Z,11.27
2022-09-13T02:50:58.297Z,10.10
2022-09-13T02:53:53.498Z,11.60
2022-09-13T02:56:43.751Z,9.57
2022-09-13T02:59:16.561Z,10.07
2022-09-13T03:01:52.674Z,12.33
2022-09-13T03:04:19.633Z,16.93
2022-09-13T03:06:46.608Z,10.30
2022-09-13T03:09:14.049Z,13.10
2022-09-13T03:11:55.699Z,10.43
2022-09-13T03:15:01.018Z,11.17
2022-09-13T03:18:22.576Z,11.57
2022-09-13T03:21:08.115Z,10.87
2022-09-13T03:24:15.755Z,12.50
2022-09-13T03:27:15.551Z,13.33
2022-09-13T03:30:13.325Z,9.83
2022-09-13T03:33:20.435Z,10.73
2022-09-13T03:35:57.723Z,11.10
2022-09-13T03:38:46.171Z,11.07
2022-09-13T03:41:20.311Z,14.17
2022-09-13T03:43:59.780Z,10.70
2022-09-13T03:46:35.895Z,11.80
2022-09-13T03:49:09.071Z,11.90
2022-09-13T03:51:37.058Z,13.40
2022-09-13T03:54:09.795Z,11.47
2022-09-13T03:56:36.786Z,14.97
2022-09-13T03:59:03.771Z,11.47
2022-09-13T04:01:31.229Z,13.30
2022-09-13T04:03:59.201Z,15.37
2022-09-13T04:06:26.129Z,14.03
2022-09-13T04:08:53.049Z,14.67
2022-09-13T04:11:21.577Z,15.30
2022-09-13T04:13:48.698Z,11.27
2022-09-13T04:16:15.773Z,11.13
2022-09-13T04:18:42.705Z,12.30
2022-09-13T04:21:09.825Z,12.53
2022-09-13T04:23:36.777Z,9.90
2022-09-13T04:26:06.374Z,10.80
2022-09-13T04:28:33.333Z,11.83
2022-09-13T04:31:00.286Z,9.47
2022-09-13T04:33:27.183Z,9.40
2022-09-13T04:36:00.689Z,11.13
2022-09-13T04:38:28.019Z,10.90
2022-09-13T04:40:56.056Z,12.02
2022-09-13T04:43:24.451Z,9.93
2022-09-13T04:45:51.920Z,9.88
2022-09-13T04:48:19.005Z,12.23
2022-09-13T04:50:46.004Z,16.65
2022-09-13T04:53:13.240Z,11.63
2022-09-13T04:55:40.205Z,10.63
2022-09-13T04:58:07.112Z,8.77
2022-09-13T05:00:34.509Z,11.57
2022-09-13T05:03:01.715Z,11.40
2022-09-13T05:05:29.383Z,10.73
2022-09-13T05:07:56.373Z,12.70
2022-09-13T05:10:23.832Z,10.73
2022-09-13T05:12:50.810Z,12.00
2022-09-13T05:15:17.912Z,12.73
2022-09-13T05:17:44.921Z,10.32
2022-09-13T05:20:11.901Z,10.45
2022-09-13T05:22:38.807Z,9.13
2022-09-13T05:25:06.697Z,8.05
2022-09-13T05:27:33.823Z,10.75
2022-09-13T05:30:02.898Z,10.57
2022-09-13T05:32:32.442Z,10.63
2022-09-13T05:34:59.355Z,10.73
2022-09-13T05:37:26.270Z,12.82
2022-09-13T05:40:11.570Z,12.15
2022-09-13T05:42:40.235Z,12.77
2022-09-13T05:45:08.615Z,9.50
2022-09-13T05:47:35.554Z,8.50
2022-09-13T05:50:10.460Z,8.15
2022-09-13T05:52:38.907Z,12.77
2022-09-13T05:55:06.004Z,10.23
2022-09-13T05:57:32.948Z,14.40
2022-09-13T05:59:59.910Z,12.50
2022-09-13T06:02:26.826Z,9.80
2022-09-13T06:04:53.792Z,11.98
2022-09-13T06:07:20.687Z,9.13
2022-09-13T06:09:47.724Z,15.70
2022-09-13T06:12:14.650Z,12.93
2022-09-13T06:14:41.619Z,12.25
2022-09-13T06:17:08.570Z,14.02
2022-09-13T06:19:35.527Z,11.00
2022-09-13T06:22:02.452Z,11.68
2022-09-13T06:24:29.354Z,16.23
2022-09-13T06:26:56.310Z,14.20
2022-09-13T06:29:23.222Z,18.70
2022-09-13T06:31:50.311Z,11.80
2022-09-13T06:34:17.577Z,11.40
2022-09-13T06:36:45.615Z,9.82
2022-09-13T06:39:12.543Z,9.73
2022-09-13T06:41:39.703Z,10.13
2022-09-13T06:44:07.056Z,16.92
2022-09-13T06:46:35.829Z,11.82
2022-09-13T06:49:06.695Z,11.05
2022-09-13T06:51:35.336Z,12.32
2022-09-13T06:54:04.047Z,11.95
2022-09-13T06:56:34.790Z,10.68
2022-09-13T06:59:05.127Z,12.70
2022-09-13T07:01:35.896Z,10.35
2022-09-13T07:04:25.942Z,14.30
2022-09-13T07:06:52.944Z,13.55
2022-09-13T07:09:22.139Z,12.30
2022-09-13T07:11:55.466Z,17.83
2022-09-13T07:14:28.776Z,15.13
2022-09-13T07:16:56.076Z,12.85
2022-09-13T07:19:28.482Z,14.82
2022-09-13T07:21:56.905Z,13.52
2022-09-13T07:24:24.700Z,11.27
2022-09-13T07:26:51.991Z,11.52
2022-09-13T07:29:25.383Z,17.85
2022-09-13T07:31:54.800Z,16.73
2022-09-13T07:34:24.117Z,8.70
2022-09-13T07:36:52.510Z,11.98
2022-09-13T07:39:22.745Z,12.98
2022-09-13T07:41:51.782Z,16.33
2022-09-13T07:44:18.900Z,16.83
2022-09-13T07:46:45.950Z,13.15
2022-09-13T07:49:16.560Z,9.55
2022-09-13T07:51:44.402Z,21.70
2022-09-13T07:54:17.878Z,10.05
2022-09-13T07:56:45.791Z,13.20
2022-09-13T07:59:15.686Z,14.35
2022-09-13T08:01:46.473Z,8.10
2022-09-13T08:04:18.013Z,9.15
2022-09-13T08:06:46.532Z,11.98
2022-09-13T08:09:14.678Z,7.28
2022-09-13T08:11:55.170Z,3.00
2022-09-13T08:14:23.403Z,5.57
2022-09-13T08:16:50.735Z,6.93
2022-09-13T08:19:18.757Z,6.65
2022-09-13T08:21:47.063Z,8.45
2022-09-13T08:24:18.550Z,5.03
2022-09-13T08:26:45.741Z,3.33
2022-09-13T08:29:14.353Z,8.32
2022-09-13T08:31:42.287Z,5.50
2022-09-13T08:34:15.241Z,4.25
2022-09-13T08:36:43.199Z,5.43
2022-09-13T08:39:13.569Z,5.30
2022-09-13T08:41:40.852Z,7.72
2022-09-13T08:44:28.376Z,4.90
2022-09-13T08:47:35.084Z,6.35
2022-09-13T08:50:19.879Z,3.10
2022-09-13T08:53:17.520Z,3.28
2022-09-13T08:56:10.574Z,7.50
2022-09-13T08:58:56.136Z,6.45
2022-09-13T09:01:53.369Z,3.53
2022-09-13T09:04:48.557Z,6.28
2022-09-13T09:07:20.296Z,4.68
2022-09-13T09:10:08.349Z,9.98
2022-09-13T09:12:48.032Z,9.40
2022-09-13T09:15:22.705Z,8.40
2022-09-13T09:18:07.758Z,5.88
2022-09-13T09:20:46.186Z,7.32
2022-09-13T09:23:30.528Z,5.22
2022-09-13T09:26:16.183Z,3.63
2022-09-13T09:28:55.782Z,5.45
2022-09-13T09:32:03.388Z,4.38
2022-09-13T09:35:04.322Z,5.30
2022-09-13T09:37:32.114Z,3.83
2022-09-13T09:40:08.977Z,2.70
2022-09-13T09:42:49.211Z,7.40
2022-09-13T09:45:33.491Z,7.40
2022-09-13T09:48:09.427Z,5.15
2022-09-13T09:50:44.284Z,2.78
2022-09-13T09:53:37.204Z,5.25
2022-09-13T09:56:32.604Z,3.05
2022-09-13T09:59:00.001Z,21.73
2022-09-13T10:01:31.012Z,13.52
2022-09-13T10:04:12.350Z,4.63
2022-09-13T10:06:42.025Z,5.22
2022-09-13T10:09:20.599Z,3.72
2022-09-13T10:11:56.356Z,5.85
2022-09-13T10:14:38.405Z,3.97
2022-09-13T10:17:06.459Z,7.70
2022-09-13T10:19:33.771Z,5.68
2022-09-13T10:22:05.757Z,4.10
2022-09-13T10:24:33.473Z,4.38
2022-09-13T10:27:00.770Z,7.88
2022-09-13T10:29:29.113Z,4.55
2022-09-13T10:32:01.289Z,8.00
2022-09-13T10:34:33.617Z,8.55
2022-09-13T10:37:33.695Z,5.20
2022-09-13T10:40:13.197Z,9.38
2022-09-13T10:42:40.903Z,3.60
2022-09-13T10:45:19.481Z,5.30
2022-09-13T10:47:51.422Z,14.60
2022-09-13T10:50:28.594Z,4.53
2022-09-13T10:52:57.084Z,2.85
2022-09-13T10:55:27.249Z,5.47
2022-09-13T10:58:03.265Z,4.97
2022-09-13T11:01:00.553Z,3.33
2022-09-13T11:03:52.971Z,4.07
2022-09-13T11:06:41.099Z,7.50
2022-09-13T11:09:29.687Z,7.07
2022-09-13T11:12:31.433Z,7.45
2022-09-13T11:15:41.309Z,7.72
2022-09-13T11:18:40.345Z,4.22
2022-09-13T11:21:38.265Z,10.63
2022-09-13T11:24:23.056Z,6.85
2022-09-13T11:27:36.463Z,4.60
2022-09-13T11:30:25.318Z,4.72
2022-09-13T11:33:25.326Z,4.80
2022-09-13T11:36:17.877Z,4.22
2022-09-13T11:39:05.821Z,5.40
2022-09-13T11:42:04.684Z,3.25
2022-09-13T11:45:21.650Z,3.05
2022-09-13T11:48:22.326Z,3.35
2022-09-13T11:51:26.537Z,3.80
2022-09-13T11:54:12.182Z,4.32
2022-09-13T11:56:44.057Z,3.70
2022-09-13T12:00:00.487Z,5.05
2022-09-13T12:03:01.891Z,2.28
2022-09-13T12:05:39.907Z,3.20
2022-09-13T12:08:19.282Z,3.03
2022-09-13T12:11:11.805Z,3.95
2022-09-13T12:14:01.339Z,4.18
2022-09-13T12:17:12.489Z,4.20
2022-09-13T12:19:50.238Z,5.32
2022-09-13T12:22:19.880Z,4.03
2022-09-13T12:24:58.606Z,3.97
2022-09-13T12:27:39.985Z,7.32
2022-09-13T12:30:18.331Z,11.80
2022-09-13T12:32:47.980Z,4.47
2022-09-13T12:35:29.263Z,5.63
2022-09-13T12:38:20.664Z,13.65
2022-09-13T12:41:16.709Z,6.43
2022-09-13T12:44:02.268Z,6.07
2022-09-13T12:47:03.613Z,7.40
2022-09-13T12:50:36.759Z,8.77
2022-09-13T12:53:27.246Z,3.88
2022-09-13T12:56:25.654Z,4.30
2022-09-13T12:59:14.653Z,9.25
2022-09-13T13:01:48.652Z,6.18
2022-09-13T13:04:20.407Z,6.80
2022-09-13T13:06:55.989Z,3.80
2022-09-13T13:09:53.764Z,3.88
2022-09-13T13:12:39.459Z,5.22
2022-09-13T13:15:15.725Z,8.38
2022-09-13T13:17:51.070Z,4.82
2022-09-13T13:20:48.365Z,4.63
2022-09-13T13:23:18.534Z,6.78
2022-09-13T13:26:10.123Z,5.68
2022-09-13T13:28:47.232Z,6.00
2022-09-13T13:31:32.261Z,5.65
2022-09-13T13:34:06.639Z,5.72
2022-09-13T13:36:44.023Z,5.88
2022-09-13T13:39:14.170Z,5.88
2022-09-13T13:41:53.676Z,3.78
2022-09-13T13:44:20.550Z,7.15
2022-09-13T13:46:53.674Z,7.97
2022-09-13T13:49:35.473Z,6.63
2022-09-13T13:52:11.568Z,5.00
2022-09-13T13:54:59.444Z,4.05
2022-09-13T13:57:41.657Z,9.90
2022-09-13T14:00:19.715Z,5.55
2022-09-13T14:02:49.321Z,7.03
2022-09-13T14:06:12.843Z,6.20
2022-09-13T14:12:07.937Z,5.15
2022-09-13T14:15:21.967Z,4.70
2022-09-13T14:18:32.660Z,4.28
2022-09-13T14:21:18.351Z,5.03
2022-09-13T14:23:45.306Z,8.55
2022-09-13T14:26:12.794Z,6.20
2022-09-13T14:28:40.418Z,4.30
2022-09-13T14:31:08.281Z,7.28
2022-09-13T14:33:37.730Z,9.52
2022-09-13T14:36:19.155Z,3.25
2022-09-13T14:38:58.802Z,7.75
2022-09-13T14:41:38.894Z,3.83
2022-09-13T14:44:23.656Z,11.55
2022-09-13T14:47:12.131Z,5.75
2022-09-13T14:49:52.009Z,5.43
2022-09-13T14:52:36.440Z,6.32
2022-09-13T14:55:12.978Z,6.60
2022-09-13T14:57:50.092Z,7.32
2022-09-13T15:00:24.399Z,5.50
2022-09-13T15:03:03.370Z,5.20
2022-09-13T15:05:34.069Z,4.97
2022-09-13T15:08:24.888Z,6.95
2022-09-13T15:10:52.550Z,6.20
2022-09-13T15:13:19.466Z,5.93
2022-09-13T15:15:46.729Z,5.72
2022-09-13T15:18:25.620Z,4.57
2022-09-13T15:21:07.466Z,9.73
2022-09-13T15:23:43.326Z,5.45
2022-09-13T15:26:25.986Z,7.70
2022-09-13T15:28:57.270Z,3.75
2022-09-13T15:31:28.694Z,7.78
2022-09-13T15:34:16.958Z,4.97
2022-09-13T15:36:49.314Z,4.35
2022-09-13T15:39:21.474Z,6.43
2022-09-13T15:41:58.990Z,7.85
2022-09-13T15:44:28.110Z,8.55
2022-09-13T15:47:02.364Z,5.57
2022-09-13T15:49:30.161Z,15.50
2022-09-13T15:52:02.745Z,7.45
2022-09-13T15:54:42.228Z,6.85
2022-09-13T15:57:29.588Z,11.98
2022-09-13T16:00:01.491Z,5.10
2022-09-13T16:02:35.718Z,5.43
2022-09-13T16:05:02.682Z,8.52
2022-09-13T16:07:29.616Z,8.52
2022-09-13T16:09:56.555Z,4.88
2022-09-13T16:12:24.339Z,5.45
2022-09-13T16:14:51.310Z,6.03
2022-09-13T16:17:25.469Z,6.47
2022-09-13T16:19:53.906Z,8.00
2022-09-13T16:22:23.109Z,8.65
2022-09-13T16:24:50.296Z,10.88
2022-09-13T16:27:18.897Z,12.90
2022-09-13T16:29:46.526Z,9.63
2022-09-13T16:32:13.551Z,9.68
2022-09-13T16:34:40.750Z,10.68
2022-09-13T16:37:07.814Z,8.20
2022-09-13T16:39:34.830Z,9.52
2022-09-13T16:42:01.808Z,8.45
2022-09-13T16:44:28.819Z,9.02
2022-09-13T16:46:56.029Z,8.00
2022-09-13T16:49:23.339Z,6.18
2022-09-13T16:51:50.339Z,6.28
2022-09-13T16:54:17.293Z,9.95
2022-09-13T16:56:44.417Z,9.73
2022-09-13T16:59:11.795Z,10.63
2022-09-13T17:01:39.144Z,10.00
2022-09-13T17:04:06.398Z,12.68
2022-09-13T17:06:33.314Z,8.13
2022-09-13T17:09:03.797Z,13.80
2022-09-13T17:11:35.881Z,8.45
2022-09-13T17:14:06.777Z,8.55
2022-09-13T17:16:42.746Z,8.00
2022-09-13T17:19:21.212Z,16.02
2022-09-13T17:21:49.269Z,9.43
2022-09-13T17:24:16.645Z,10.13
2022-09-13T17:26:45.387Z,8.27
2022-09-13T17:29:13.367Z,8.88
2022-09-13T17:31:43.381Z,7.03
2022-09-13T17:34:12.226Z,8.93
2022-09-13T17:36:43.635Z,27.63
2022-09-13T17:39:11.792Z,8.95
2022-09-13T17:41:39.659Z,9.02
2022-09-13T17:44:07.308Z,7.25
2022-09-13T17:46:34.421Z,8.07
2022-09-13T17:49:02.072Z,6.50
2022-09-13T17:51:31.735Z,15.23
2022-09-13T17:54:02.751Z,7.80
2022-09-13T17:56:42.563Z,7.05
2022-09-13T17:59:18.008Z,12.23
2022-09-13T18:01:49.498Z,11.50
2022-09-13T18:04:19.174Z,8.65
2022-09-13T18:06:46.872Z,13.32
2022-09-13T18:09:16.420Z,10.18
2022-09-13T18:11:43.538Z,6.80
2022-09-13T18:14:16.670Z,8.23
2022-09-13T18:16:45.345Z,7.63
2022-09-13T18:19:13.143Z,9.68
2022-09-13T18:21:41.020Z,8.65
2022-09-13T18:24:08.493Z,8.25
2022-09-13T18:26:36.905Z,9.23
2022-09-13T18:29:13.687Z,7.30
2022-09-13T18:31:42.730Z,7.68
2022-09-13T18:34:14.624Z,9.70
2022-09-13T18:36:42.798Z,6.53
2022-09-13T18:39:23.241Z,8.77
2022-09-13T18:41:51.732Z,7.97
2022-09-13T18:44:19.279Z,7.55
2022-09-13T18:46:47.473Z,10.65
2022-09-13T18:49:15.230Z,14.32
2022-09-13T18:51:44.969Z,7.55
2022-09-13T18:54:18.603Z,10.30
2022-09-13T18:56:48.216Z,7.60
2022-09-13T18:59:15.506Z,9.02
2022-09-13T19:01:44.855Z,8.40
2022-09-13T19:04:19.019Z,8.65
2022-09-13T19:07:02.201Z,8.93
2022-09-13T19:09:30.409Z,6.80
2022-09-13T19:11:59.505Z,12.52
2022-09-13T19:14:28.643Z,10.82
2022-09-13T19:17:05.229Z,10.65
2022-09-13T19:19:33.904Z,6.93
2022-09-13T19:22:00.895Z,11.75
2022-09-13T19:24:29.437Z,7.43
2022-09-13T19:26:56.706Z,8.40
2022-09-13T19:29:25.352Z,7.60
2022-09-13T19:31:54.158Z,8.45
2022-09-13T19:34:24.233Z,8.93
2022-09-13T19:36:58.301Z,11.88
2022-09-13T19:39:30.034Z,10.20
2022-09-13T19:42:00.514Z,9.95
2022-09-13T19:44:28.784Z,10.25
2022-09-13T19:47:42.805Z,8.82
2022-09-13T19:49:44.854Z,8.23
2022-09-13T19:52:12.313Z,9.02
2022-09-13T19:54:41.768Z,9.10
2022-09-13T19:57:10.373Z,7.38
2022-09-13T19:59:37.895Z,14.38
2022-09-13T20:02:05.411Z,10.75
2022-09-13T20:04:32.696Z,10.00
2022-09-13T20:07:00.298Z,10.93
2022-09-13T20:09:27.665Z,10.27
2022-09-13T20:12:00.992Z,11.68
2022-09-13T20:14:29.200Z,10.55
2022-09-13T20:16:56.334Z,9.25
2022-09-13T20:19:40.597Z,11.48
2022-09-13T20:22:10.493Z,9.25
2022-09-13T20:24:40.025Z,8.82
2022-09-13T20:27:07.830Z,14.23
2022-09-13T20:29:35.705Z,23.50
2022-09-13T20:32:03.802Z,17.65
2022-09-13T20:34:31.858Z,11.20
2022-09-13T20:36:59.166Z,13.02
2022-09-13T20:39:26.660Z,8.73
2022-09-13T20:41:54.697Z,12.32
2022-09-13T20:44:22.169Z,14.32
2022-09-13T20:46:49.978Z,7.97
2022-09-13T20:49:17.853Z,10.90
2022-09-13T20:51:46.662Z,8.27
2022-09-13T20:54:13.619Z,12.95
2022-09-13T20:56:40.575Z,7.80
2022-09-13T20:59:07.641Z,13.02
2022-09-13T21:01:35.198Z,13.27
2022-09-13T21:04:03.609Z,8.27
2022-09-13T21:06:36.404Z,11.68
2022-09-13T21:09:03.561Z,10.25
2022-09-13T21:11:36.588Z,8.07
2022-09-13T21:14:06.815Z,9.02
2022-09-13T21:16:39.344Z,13.13
2022-09-13T21:19:07.454Z,8.65
2022-09-13T21:21:38.209Z,9.50
2022-09-13T21:24:09.794Z,9.85
2022-09-13T21:26:42.183Z,13.73
2022-09-13T21:29:10.546Z,8.95
2022-09-13T21:31:38.630Z,13.25
2022-09-13T21:34:11.797Z,11.65
2022-09-13T21:36:39.305Z,11.13
2022-09-13T21:39:06.507Z,11.15
2022-09-13T21:41:34.657Z,10.77
2022-09-13T21:44:01.856Z,11.35
2022-09-13T21:46:35.906Z,9.07
2022-09-13T21:49:07.220Z,10.85
2022-09-13T21:51:47.113Z,11.27
2022-09-13T21:54:17.610Z,9.48
2022-09-13T21:56:52.253Z,12.07
2022-09-13T21:59:21.371Z,8.98
2022-09-13T22:01:51.467Z,10.13
2022-09-13T22:04:22.467Z,10.00
2022-09-13T22:06:52.231Z,9.00
2022-09-13T22:09:22.279Z,11.95
2022-09-13T22:11:49.685Z,9.57
2022-09-13T22:14:19.937Z,9.88
2022-09-13T22:16:47.000Z,8.73
2022-09-13T22:19:26.038Z,10.63
2022-09-13T22:21:59.657Z,10.02
2022-09-13T22:24:32.133Z,8.88
2022-09-13T22:26:59.609Z,8.38
2022-09-13T22:29:27.423Z,7.78
2022-09-13T22:31:54.915Z,7.88
2022-09-13T22:34:25.024Z,8.90
2022-09-13T22:36:55.246Z,8.90
2022-09-13T22:39:22.417Z,7.43
2022-09-13T22:41:49.324Z,8.98
2022-09-13T22:44:16.339Z,7.57
2022-09-13T22:46:45.764Z,9.05
2022-09-13T22:49:16.676Z,6.50
2022-09-13T22:51:47.797Z,6.60
2022-09-13T22:54:17.081Z,5.75
2022-09-13T22:56:44.730Z,5.32
2022-09-13T22:59:21.146Z,4.53
2022-09-13T23:01:49.110Z,4.40
2022-09-13T23:04:16.571Z,4.85
2022-09-13T23:06:44.418Z,4.10
2022-09-13T23:09:16.847Z,4.35
2022-09-13T23:11:44.496Z,4.00
2022-09-13T23:14:14.767Z,3.42
2022-09-13T23:16:50.149Z,3.50
2022-09-13T23:19:20.121Z,9.20
2022-09-13T23:21:47.145Z,10.75
2022-09-13T23:24:17.611Z,5.70
2022-09-13T23:26:45.647Z,3.38
2022-09-13T23:29:17.312Z,2.75
2022-09-13T23:31:46.859Z,4.35
2022-09-13T23:34:15.139Z,2.40
2022-09-13T23:36:44.435Z,2.58
2022-09-13T23:39:18.312Z,2.85
2022-09-13T23:41:47.719Z,2.50
2022-09-13T23:44:15.365Z,2.03
2022-09-13T23:46:42.524Z,2.35
2022-09-13T23:49:09.428Z,2.63
2022-09-13T23:51:36.596Z,2.05
2022-09-13T23:54:03.957Z,2.05
2022-09-13T23:56:32.523Z,2.15
2022-09-13T23:59:02.247Z,2.20
